Terminal Aerodrome Forecast
Issued by NWS Sterling, VA

Current Version | Previous Version | Graphics & Text | Print | Product List | Glossary Off
Versions: 1 2 3 4 5 6 7 8 9 10 11 12 13 14 15 16 17 18 19 20 21 22 23 24 25 26 27

468
FTUS41 KLWX 290834 AAA
TAFDCA
TAF AMD
KDCA 290834Z 2909/3006 35007G14KT P6SM BKN030
     FM291300 35008G15KT P6SM SCT050
     FM300000 03007KT P6SM FEW040=

USA.gov is the U.S. government's official web portal to all federal, state and local government web resources and services.